Pagrindinis puslapis
METAR-TAF:

METAR-TAF

Oro uostai :

Schwäbisch Hall, Vokietija

platuma: 49-07-06N, ilguma: 9-47-02E, Aukštis: 398 m

Dabartinis oras

Ataskaita buvo paskelbta 27 minutes, ne 23:20 UTC
Vėjas 5 kt iš Šiaurės
Temperatūra 6°C
Drėgmė 61%
Slėgis 1018 hPa
Matomumas 10 km arba daugiau

METAR: EDTY 282320Z AUTO 36005KT 9999 // BKN080/// 06/M01 Q1018

Laikas: 00:47 (23:47 UTC)

Prognozė

Ataskaita buvo paskelbta 9 valandos ir 47 minutes, ne 14:00 UTC
Prognozė galioja nuo 28 metu 15 UTC su 28 metu 24 UTC
Vėjas 6 kt iš Šiaurės/Šiaurės Rytų
Matomumas 10 km arba daugiau
nėra debesų žemiau 1500 m ir nėra kamuolinių lietaus debesų

TAF: EDTY 281400Z 2815/2824 03006KT CAVOK

Orai ataskaitas ir orų prognozės (METAR, TAF).

turimą stotys yra geltonos ir raudonos taškus žemėlapyje.

Perkelti pele per norėdami pamatyti stoties vardą.

Tada spustelėkite, norėdami matyti oro stebėjimo ir prognozės.

Norėdami pakeisti žemėlapį: spustelėkite ant žalios mygtukų su juodo kryžiaus žemyn,; žalią mygtuką su brūkšneliu, jei norite nutolinti; arba žalių rodyklių gretimoms žemėlapius.


METAR-TAF: